Language selection

My Weather Profile Weather Topics  | 

Lake Nipigon: Past 24 Hour Conditions

 

Sault Ste. Marie Airport

12:00 PM EDT 23 September 2021
Disclaimer

This table is a summary of hourly weather conditions for the past 24 hours.
Please note that these observations might not always be representative of weather conditions over their associated marine area.

Date / Time
(EDT)
Wind(knots) Conditions Visibility(km) Pressure(kPa) Air tempC) Relative humidity(%) Dew pointC)
23 September 2021
12:00 NNW 5 Mostly Cloudy 40 101.3 11 57 2
11:00 N 12 gust 17 Mostly Cloudy 40 101.3 10 55 2
10:00 N 8 Mostly Cloudy 40 101.4 9 64 3
9:00 N 6 Mostly Cloudy 40 101.5 7 71 2
8:00 NNW 3 Mostly Cloudy 40 101.5 7 77 3
7:00 N 8 Mostly Cloudy 32 101.6 6 80 3
6:00 N 6 Mostly Cloudy 32 101.7 5 87 3
5:00 NE 9 Partly Cloudy 32 101.7 5 79 2
4:00 NNW 6 Mainly Clear 32 101.8 5 81 2
3:00 N 5 Mainly Clear 32 101.9 6 80 3
2:00 N 5 Partly Cloudy 32 101.9 7 79 4
1:00 NNE 6 Partly Cloudy 32 102.0 8 76 4
0:00 NE 4 Mostly Cloudy 32 102.0 8 77 4
22 September 2021
23:00 N 6 Mostly Cloudy 32 102.0 9 80 5
22:00 NW 2 Mostly Cloudy 32 102.1 8 87 6
21:00 N 4 Mostly Cloudy 32 102.1 10 68 5
20:00 NE 3 Mostly Cloudy 32 102.1 11 61 4
19:00 N 5 Mostly Cloudy 32 102.1 13 57 4
18:00 N 6 Mostly Cloudy 32 102.2 15 51 5
17:00 N 10 gust 17 Mostly Cloudy 32 102.2 15 49 5
16:00 NNW 12 Partly Cloudy 32 102.1 15 49 5
15:00 NNW 10 gust 16 Partly Cloudy 32 102.2 15 46 4
14:00 SSE 3 Partly Cloudy 32 102.4 15 49 4
13:00 NNW 8 gust 15 Partly Cloudy 32 102.3 14 54 5
12:00 NNE 6 Mostly Cloudy 32 102.4 12 64 5

Zoom-in to make a selection

Map of Great Lakes - Lake Superior marine weather areas Mid Superior - 45001 East Superior - 45004 West Superior - 45006 Slate Island - 45136 Lake Of the Woods - 45148 Kenora Airport Royal Island Armstrong Airport Caribou Island Marathon Airport Pukaskwa National Park Thunder Bay Airport Welcome Island Little Flatland Island Sault Ste. Marie Airport Wawa Airport
Legend:
buoy Buoy
land station Land Station

Great Lakes - Lake Superior Area

Another Region

What we are doing

Date modified: